sensor_id;sensor_type;location;lat;lon;timestamp;P1;durP1;ratioP1;P2;durP2;ratioP2
47513;SDS011;33951;51.988;5.910;2023-04-30T06:44:08;16.00;;;10.85;;
47513;SDS011;33951;51.988;5.910;2023-04-30T06:46:54;13.07;;;9.65;;
47513;SDS011;33951;51.988;5.910;2023-04-30T06:53:20;15.98;;;8.82;;
47513;SDS011;33951;51.988;5.910;2023-04-30T06:56:09;13.90;;;9.15;;
47513;SDS011;33951;51.988;5.910;2023-04-30T06:59:00;12.85;;;9.40;;
47513;SDS011;33951;51.988;5.910;2023-04-30T07:06:52;14.13;;;9.05;;
47513;SDS011;33951;51.988;5.910;2023-04-30T07:12:55;15.23;;;9.40;;
47513;SDS011;33951;51.988;5.910;2023-04-30T07:15:23;12.02;;;7.75;;
47513;SDS011;33951;51.988;5.910;2023-04-30T07:21:36;11.85;;;8.45;;
47513;SDS011;33951;51.988;5.910;2023-04-30T07:24:18;11.60;;;8.77;;
47513;SDS011;33951;51.988;5.910;2023-04-30T07:32:46;13.75;;;7.15;;
47513;SDS011;33951;51.988;5.910;2023-04-30T07:35:14;11.52;;;7.78;;
47513;SDS011;33951;51.988;5.910;2023-04-30T07:38:12;9.88;;;6.95;;
47513;SDS011;33951;51.988;5.910;2023-04-30T07:41:16;12.48;;;8.27;;
47513;SDS011;33951;51.988;5.910;2023-04-30T07:47:39;12.52;;;7.78;;
47513;SDS011;33951;51.988;5.910;2023-04-30T07:50:30;11.88;;;7.78;;
47513;SDS011;33951;51.988;5.910;2023-04-30T07:53:06;12.00;;;7.57;;
47513;SDS011;33951;51.988;5.910;2023-04-30T07:58:51;15.18;;;11.25;;
47513;SDS011;33951;51.988;5.910;2023-04-30T08:01:34;15.00;;;9.43;;
47513;SDS011;33951;51.988;5.910;2023-04-30T08:04:22;14.48;;;8.18;;
47513;SDS011;33951;51.988;5.910;2023-04-30T08:07:01;13.07;;;6.80;;
47513;SDS011;33951;51.988;5.910;2023-04-30T08:09:40;13.43;;;7.95;;
47513;SDS011;33951;51.988;5.910;2023-04-30T08:12:22;11.48;;;7.25;;
47513;SDS011;33951;51.988;5.910;2023-04-30T08:14:58;11.57;;;8.23;;
47513;SDS011;33951;51.988;5.910;2023-04-30T08:17:37;11.30;;;8.50;;
47513;SDS011;33951;51.988;5.910;2023-04-30T08:20:05;10.82;;;8.13;;
47513;SDS011;33951;51.988;5.910;2023-04-30T08:22:32;13.05;;;9.02;;
47513;SDS011;33951;51.988;5.910;2023-04-30T08:25:09;12.90;;;9.30;;
47513;SDS011;33951;51.988;5.910;2023-04-30T08:35:08;10.30;;;7.95;;
47513;SDS011;33951;51.988;5.910;2023-04-30T08:43:47;11.50;;;6.78;;
47513;SDS011;33951;51.988;5.910;2023-04-30T08:46:39;12.25;;;7.85;;
47513;SDS011;33951;51.988;5.910;2023-04-30T08:49:11;15.55;;;8.20;;
47513;SDS011;33951;51.988;5.910;2023-04-30T08:51:48;19.35;;;12.50;;
47513;SDS011;33951;51.988;5.910;2023-04-30T08:54:19;9.35;;;6.68;;
47513;SDS011;33951;51.988;5.910;2023-04-30T09:10:36;9.85;;;6.70;;
47513;SDS011;33951;51.988;5.910;2023-04-30T09:13:12;7.35;;;5.70;;
47513;SDS011;33951;51.988;5.910;2023-04-30T09:16:25;14.75;;;5.97;;
47513;SDS011;33951;51.988;5.910;2023-04-30T09:22:31;9.65;;;6.32;;
47513;SDS011;33951;51.988;5.910;2023-04-30T09:25:36;9.15;;;5.88;;
47513;SDS011;33951;51.988;5.910;2023-04-30T09:31:46;10.25;;;6.25;;
47513;SDS011;33951;51.988;5.910;2023-04-30T09:47:12;7.43;;;5.55;;
47513;SDS011;33951;51.988;5.910;2023-04-30T09:49:46;7.75;;;5.75;;
47513;SDS011;33951;51.988;5.910;2023-04-30T09:52:26;6.55;;;5.00;;
47513;SDS011;33951;51.988;5.910;2023-04-30T10:00:50;6.38;;;4.95;;
47513;SDS011;33951;51.988;5.910;2023-04-30T10:10:49;8.85;;;5.00;;
47513;SDS011;33951;51.988;5.910;2023-04-30T10:13:54;5.45;;;4.30;;
47513;SDS011;33951;51.988;5.910;2023-04-30T10:16:46;6.32;;;3.80;;
47513;SDS011;33951;51.988;5.910;2023-04-30T10:19:33;5.65;;;3.65;;
47513;SDS011;33951;51.988;5.910;2023-04-30T10:29:08;7.13;;;4.60;;
47513;SDS011;33951;51.988;5.910;2023-04-30T10:42:27;6.28;;;4.38;;
47513;SDS011;33951;51.988;5.910;2023-04-30T10:52:10;3.50;;;3.17;;
47513;SDS011;33951;51.988;5.910;2023-04-30T11:02:00;17.38;;;12.10;;
47513;SDS011;33951;51.988;5.910;2023-04-30T11:11:32;8.00;;;4.10;;
47513;SDS011;33951;51.988;5.910;2023-04-30T11:17:50;6.78;;;4.20;;
47513;SDS011;33951;51.988;5.910;2023-04-30T11:20:47;6.75;;;4.32;;
47513;SDS011;33951;51.988;5.910;2023-04-30T11:24:01;5.93;;;3.37;;
47513;SDS011;33951;51.988;5.910;2023-04-30T11:37:10;5.28;;;3.13;;
47513;SDS011;33951;51.988;5.910;2023-04-30T11:43:29;4.68;;;3.47;;
47513;SDS011;33951;51.988;5.910;2023-04-30T11:52:47;5.97;;;3.83;;
47513;SDS011;33951;51.988;5.910;2023-04-30T11:59:11;7.45;;;3.80;;
47513;SDS011;33951;51.988;5.910;2023-04-30T12:02:07;7.57;;;3.67;;
47513;SDS011;33951;51.988;5.910;2023-04-30T12:08:00;4.53;;;3.42;;
47513;SDS011;33951;51.988;5.910;2023-04-30T12:11:17;6.85;;;3.33;;
47513;SDS011;33951;51.988;5.910;2023-04-30T12:14:35;11.52;;;8.30;;
47513;SDS011;33951;51.988;5.910;2023-04-30T12:21:01;4.03;;;3.00;;
47513;SDS011;33951;51.988;5.910;2023-04-30T12:23:49;5.13;;;3.13;;
47513;SDS011;33951;51.988;5.910;2023-04-30T12:26:33;4.38;;;2.83;;
47513;SDS011;33951;51.988;5.910;2023-04-30T12:36:12;6.38;;;2.85;;
47513;SDS011;33951;51.988;5.910;2023-04-30T12:39:33;9.93;;;7.25;;
47513;SDS011;33951;51.988;5.910;2023-04-30T12:42:42;5.30;;;3.17;;
47513;SDS011;33951;51.988;5.910;2023-04-30T12:48:52;3.00;;;2.03;;
47513;SDS011;33951;51.988;5.910;2023-04-30T12:52:09;3.60;;;2.20;;
47513;SDS011;33951;51.988;5.910;2023-04-30T12:58:36;2.88;;;2.25;;
47513;SDS011;33951;51.988;5.910;2023-04-30T13:01:30;3.78;;;1.70;;
47513;SDS011;33951;51.988;5.910;2023-04-30T13:04:35;2.50;;;1.60;;
47513;SDS011;33951;51.988;5.910;2023-04-30T13:07:20;2.13;;;1.70;;
47513;SDS011;33951;51.988;5.910;2023-04-30T13:13:40;7.55;;;5.18;;
47513;SDS011;33951;51.988;5.910;2023-04-30T13:16:28;2.60;;;1.77;;
47513;SDS011;33951;51.988;5.910;2023-04-30T13:19:32;3.95;;;1.70;;
47513;SDS011;33951;51.988;5.910;2023-04-30T13:22:38;3.38;;;1.88;;
47513;SDS011;33951;51.988;5.910;2023-04-30T13:28:53;2.50;;;1.50;;
47513;SDS011;33951;51.988;5.910;2023-04-30T13:34:54;2.33;;;1.80;;
47513;SDS011;33951;51.988;5.910;2023-04-30T13:37:23;4.53;;;3.45;;
47513;SDS011;33951;51.988;5.910;2023-04-30T13:46:48;5.90;;;2.42;;
47513;SDS011;33951;51.988;5.910;2023-04-30T13:53:37;3.10;;;1.80;;
47513;SDS011;33951;51.988;5.910;2023-04-30T13:56:42;4.90;;;1.85;;
47513;SDS011;33951;51.988;5.910;2023-04-30T14:03:13;2.65;;;2.15;;
47513;SDS011;33951;51.988;5.910;2023-04-30T14:12:35;3.72;;;2.13;;
47513;SDS011;33951;51.988;5.910;2023-04-30T14:24:15;2.50;;;1.83;;
47513;SDS011;33951;51.988;5.910;2023-04-30T14:30:06;3.70;;;1.92;;
47513;SDS011;33951;51.988;5.910;2023-04-30T14:33:03;1.85;;;1.42;;
47513;SDS011;33951;51.988;5.910;2023-04-30T14:35:59;3.33;;;2.20;;
47513;SDS011;33951;51.988;5.910;2023-04-30T14:38:54;3.28;;;2.13;;
47513;SDS011;33951;51.988;5.910;2023-04-30T14:44:54;2.58;;;1.63;;
47513;SDS011;33951;51.988;5.910;2023-04-30T14:47:25;2.90;;;1.70;;
47513;SDS011;33951;51.988;5.910;2023-04-30T14:50:13;3.63;;;1.60;;
47513;SDS011;33951;51.988;5.910;2023-04-30T14:56:38;2.38;;;1.40;;
47513;SDS011;33951;51.988;5.910;2023-04-30T14:59:44;2.25;;;1.63;;
47513;SDS011;33951;51.988;5.910;2023-04-30T15:05:48;2.83;;;1.67;;
47513;SDS011;33951;51.988;5.910;2023-04-30T15:14:30;3.45;;;1.67;;
47513;SDS011;33951;51.988;5.910;2023-04-30T15:21:10;2.85;;;1.40;;
47513;SDS011;33951;51.988;5.910;2023-04-30T15:24:26;1.75;;;1.40;;
47513;SDS011;33951;51.988;5.910;2023-04-30T15:27:07;2.83;;;1.15;;
47513;SDS011;33951;51.988;5.910;2023-04-30T15:30:22;2.67;;;1.10;;
47513;SDS011;33951;51.988;5.910;2023-04-30T15:33:12;3.70;;;1.13;;
47513;SDS011;33951;51.988;5.910;2023-04-30T15:42:09;2.97;;;1.67;;
47513;SDS011;33951;51.988;5.910;2023-04-30T15:45:20;2.83;;;1.80;;
47513;SDS011;33951;51.988;5.910;2023-04-30T15:47:58;4.65;;;1.85;;
47513;SDS011;33951;51.988;5.910;2023-04-30T15:54:20;4.82;;;1.80;;
47513;SDS011;33951;51.988;5.910;2023-04-30T15:56:51;4.85;;;2.25;;
47513;SDS011;33951;51.988;5.910;2023-04-30T15:59:23;2.97;;;1.50;;
47513;SDS011;33951;51.988;5.910;2023-04-30T16:01:49;4.53;;;1.90;;
47513;SDS011;33951;51.988;5.910;2023-04-30T16:04:17;3.45;;;1.48;;
47513;SDS011;33951;51.988;5.910;2023-04-30T16:06:43;2.72;;;1.40;;
47513;SDS011;33951;51.988;5.910;2023-04-30T16:09:11;2.08;;;1.50;;
47513;SDS011;33951;51.988;5.910;2023-04-30T16:11:51;2.13;;;1.27;;
47513;SDS011;33951;51.988;5.910;2023-04-30T16:15:07;2.42;;;1.30;;
47513;SDS011;33951;51.988;5.910;2023-04-30T16:17:57;3.58;;;1.70;;
47513;SDS011;33951;51.988;5.910;2023-04-30T16:54:05;1.83;;;1.58;;
47513;SDS011;33951;51.988;5.910;2023-04-30T17:06:44;3.57;;;1.60;;
47513;SDS011;33951;51.988;5.910;2023-04-30T17:12:48;2.00;;;1.30;;
47513;SDS011;33951;51.988;5.910;2023-04-30T17:15:40;4.07;;;1.65;;
47513;SDS011;33951;51.988;5.910;2023-04-30T17:18:43;3.55;;;1.73;;
47513;SDS011;33951;51.988;5.910;2023-04-30T17:24:45;3.97;;;1.80;;
47513;SDS011;33951;51.988;5.910;2023-04-30T17:27:28;4.95;;;2.10;;
47513;SDS011;33951;51.988;5.910;2023-04-30T17:29:54;4.03;;;2.33;;
47513;SDS011;33951;51.988;5.910;2023-04-30T17:32:19;1.85;;;1.42;;
47513;SDS011;33951;51.988;5.910;2023-04-30T17:34:45;3.05;;;1.85;;
47513;SDS011;33951;51.988;5.910;2023-04-30T17:37:17;3.97;;;1.60;;
47513;SDS011;33951;51.988;5.910;2023-04-30T17:39:48;4.63;;;1.85;;
47513;SDS011;33951;51.988;5.910;2023-04-30T17:42:19;5.75;;;2.00;;
47513;SDS011;33951;51.988;5.910;2023-04-30T17:44:44;3.40;;;1.65;;
47513;SDS011;33951;51.988;5.910;2023-04-30T17:47:13;3.25;;;1.77;;
47513;SDS011;33951;51.988;5.910;2023-04-30T17:49:39;4.32;;;1.90;;
47513;SDS011;33951;51.988;5.910;2023-04-30T17:52:04;4.18;;;2.45;;
47513;SDS011;33951;51.988;5.910;2023-04-30T17:54:30;3.28;;;1.55;;
47513;SDS011;33951;51.988;5.910;2023-04-30T17:56:59;3.45;;;2.20;;
47513;SDS011;33951;51.988;5.910;2023-04-30T17:59:26;2.60;;;1.70;;
47513;SDS011;33951;51.988;5.910;2023-04-30T18:01:53;3.83;;;2.10;;
47513;SDS011;33951;51.988;5.910;2023-04-30T18:04:26;3.58;;;1.70;;
47513;SDS011;33951;51.988;5.910;2023-04-30T18:06:51;2.45;;;1.70;;
47513;SDS011;33951;51.988;5.910;2023-04-30T18:09:25;6.10;;;2.08;;
47513;SDS011;33951;51.988;5.910;2023-04-30T18:11:54;3.22;;;1.77;;
47513;SDS011;33951;51.988;5.910;2023-04-30T18:14:25;3.55;;;2.10;;
47513;SDS011;33951;51.988;5.910;2023-04-30T18:16:59;3.50;;;2.40;;
47513;SDS011;33951;51.988;5.910;2023-04-30T18:19:30;3.40;;;2.00;;
47513;SDS011;33951;51.988;5.910;2023-04-30T18:22:02;2.30;;;1.75;;
47513;SDS011;33951;51.988;5.910;2023-04-30T18:24:28;4.35;;;1.83;;
47513;SDS011;33951;51.988;5.910;2023-04-30T18:26:57;4.45;;;2.13;;
47513;SDS011;33951;51.988;5.910;2023-04-30T18:29:36;8.70;;;2.40;;
47513;SDS011;33951;51.988;5.910;2023-04-30T18:32:11;3.17;;;1.92;;
47513;SDS011;33951;51.988;5.910;2023-04-30T18:34:37;7.20;;;2.30;;
47513;SDS011;33951;51.988;5.910;2023-04-30T18:37:30;4.93;;;2.20;;
47513;SDS011;33951;51.988;5.910;2023-04-30T18:40:01;3.65;;;1.70;;
47513;SDS011;33951;51.988;5.910;2023-04-30T18:42:31;4.70;;;2.10;;
47513;SDS011;33951;51.988;5.910;2023-04-30T18:45:07;2.78;;;1.70;;
47513;SDS011;33951;51.988;5.910;2023-04-30T18:47:35;2.42;;;1.58;;
47513;SDS011;33951;51.988;5.910;2023-04-30T18:50:01;4.97;;;1.92;;
47513;SDS011;33951;51.988;5.910;2023-04-30T18:52:39;5.47;;;2.10;;
47513;SDS011;33951;51.988;5.910;2023-04-30T18:55:14;5.30;;;2.17;;
47513;SDS011;33951;51.988;5.910;2023-04-30T18:57:42;4.88;;;2.28;;
47513;SDS011;33951;51.988;5.910;2023-04-30T19:00:11;3.25;;;2.40;;
47513;SDS011;33951;51.988;5.910;2023-04-30T19:02:38;3.60;;;2.03;;
47513;SDS011;33951;51.988;5.910;2023-04-30T19:05:04;5.10;;;2.05;;
47513;SDS011;33951;51.988;5.910;2023-04-30T19:07:35;4.45;;;1.98;;
47513;SDS011;33951;51.988;5.910;2023-04-30T19:10:03;3.92;;;2.22;;
47513;SDS011;33951;51.988;5.910;2023-04-30T19:12:39;4.70;;;2.47;;
47513;SDS011;33951;51.988;5.910;2023-04-30T19:15:08;4.20;;;2.17;;
47513;SDS011;33951;51.988;5.910;2023-04-30T19:17:39;4.93;;;2.00;;
47513;SDS011;33951;51.988;5.910;2023-04-30T19:20:05;5.07;;;1.90;;
47513;SDS011;33951;51.988;5.910;2023-04-30T19:22:31;3.35;;;1.90;;
47513;SDS011;33951;51.988;5.910;2023-04-30T19:25:23;4.00;;;1.90;;
47513;SDS011;33951;51.988;5.910;2023-04-30T19:27:56;3.88;;;2.03;;
47513;SDS011;33951;51.988;5.910;2023-04-30T19:30:25;5.20;;;1.83;;
47513;SDS011;33951;51.988;5.910;2023-04-30T19:32:51;6.60;;;2.20;;
47513;SDS011;33951;51.988;5.910;2023-04-30T19:35:17;3.75;;;2.13;;
47513;SDS011;33951;51.988;5.910;2023-04-30T19:37:51;3.45;;;1.80;;
47513;SDS011;33951;51.988;5.910;2023-04-30T19:40:20;2.95;;;2.05;;
47513;SDS011;33951;51.988;5.910;2023-04-30T19:42:51;5.97;;;2.25;;
47513;SDS011;33951;51.988;5.910;2023-04-30T19:45:26;3.15;;;1.67;;
47513;SDS011;33951;51.988;5.910;2023-04-30T19:47:59;6.97;;;2.47;;
47513;SDS011;33951;51.988;5.910;2023-04-30T19:50:25;4.13;;;2.33;;
47513;SDS011;33951;51.988;5.910;2023-04-30T19:52:53;6.20;;;2.40;;
47513;SDS011;33951;51.988;5.910;2023-04-30T19:55:21;4.75;;;2.20;;
47513;SDS011;33951;51.988;5.910;2023-04-30T19:57:58;5.63;;;2.50;;
47513;SDS011;33951;51.988;5.910;2023-04-30T20:00:41;4.78;;;1.67;;
47513;SDS011;33951;51.988;5.910;2023-04-30T20:03:08;7.10;;;2.50;;
47513;SDS011;33951;51.988;5.910;2023-04-30T20:05:34;4.50;;;1.90;;
47513;SDS011;33951;51.988;5.910;2023-04-30T20:08:04;4.90;;;2.20;;
47513;SDS011;33951;51.988;5.910;2023-04-30T20:10:33;4.07;;;1.77;;
47513;SDS011;33951;51.988;5.910;2023-04-30T20:13:01;3.85;;;2.00;;
47513;SDS011;33951;51.988;5.910;2023-04-30T20:15:28;3.67;;;1.88;;
47513;SDS011;33951;51.988;5.910;2023-04-30T20:17:54;4.05;;;2.10;;
47513;SDS011;33951;51.988;5.910;2023-04-30T20:20:20;3.10;;;1.90;;
47513;SDS011;33951;51.988;5.910;2023-04-30T20:22:51;2.75;;;1.85;;
47513;SDS011;33951;51.988;5.910;2023-04-30T20:25:18;3.30;;;1.67;;
47513;SDS011;33951;51.988;5.910;2023-04-30T20:27:45;5.70;;;1.88;;
47513;SDS011;33951;51.988;5.910;2023-04-30T20:30:11;5.75;;;1.90;;
47513;SDS011;33951;51.988;5.910;2023-04-30T20:32:40;5.20;;;2.20;;
47513;SDS011;33951;51.988;5.910;2023-04-30T20:35:06;5.57;;;2.53;;
47513;SDS011;33951;51.988;5.910;2023-04-30T20:37:32;4.10;;;2.55;;
47513;SDS011;33951;51.988;5.910;2023-04-30T20:39:59;4.68;;;2.10;;
47513;SDS011;33951;51.988;5.910;2023-04-30T20:42:25;4.18;;;1.98;;
47513;SDS011;33951;51.988;5.910;2023-04-30T20:44:54;4.85;;;2.17;;
47513;SDS011;33951;51.988;5.910;2023-04-30T20:47:22;3.42;;;2.20;;
47513;SDS011;33951;51.988;5.910;2023-04-30T20:49:48;4.38;;;1.95;;
47513;SDS011;33951;51.988;5.910;2023-04-30T20:52:20;4.85;;;1.95;;
47513;SDS011;33951;51.988;5.910;2023-04-30T20:54:53;2.95;;;1.80;;
47513;SDS011;33951;51.988;5.910;2023-04-30T20:57:18;4.70;;;1.98;;
47513;SDS011;33951;51.988;5.910;2023-04-30T20:59:44;4.30;;;1.80;;
47513;SDS011;33951;51.988;5.910;2023-04-30T21:02:10;3.00;;;1.85;;
47513;SDS011;33951;51.988;5.910;2023-04-30T21:04:35;35.42;;;23.38;;
47513;SDS011;33951;51.988;5.910;2023-04-30T21:07:01;86.22;;;55.95;;
47513;SDS011;33951;51.988;5.910;2023-04-30T21:09:26;44.53;;;27.63;;
47513;SDS011;33951;51.988;5.910;2023-04-30T21:11:52;13.02;;;7.43;;
47513;SDS011;33951;51.988;5.910;2023-04-30T21:14:21;39.15;;;26.33;;
47513;SDS011;33951;51.988;5.910;2023-04-30T21:16:49;54.97;;;35.17;;
47513;SDS011;33951;51.988;5.910;2023-04-30T21:19:15;36.22;;;22.55;;
47513;SDS011;33951;51.988;5.910;2023-04-30T21:21:42;27.20;;;17.52;;
47513;SDS011;33951;51.988;5.910;2023-04-30T21:24:08;12.10;;;6.97;;
47513;SDS011;33951;51.988;5.910;2023-04-30T21:26:42;5.25;;;4.10;;
47513;SDS011;33951;51.988;5.910;2023-04-30T21:33:05;7.22;;;3.00;;
47513;SDS011;33951;51.988;5.910;2023-04-30T21:45:42;4.72;;;2.35;;
47513;SDS011;33951;51.988;5.910;2023-04-30T21:48:42;4.65;;;2.90;;
47513;SDS011;33951;51.988;5.910;2023-04-30T21:54:55;4.80;;;2.58;;
47513;SDS011;33951;51.988;5.910;2023-04-30T22:00:44;4.53;;;2.80;;
47513;SDS011;33951;51.988;5.910;2023-04-30T22:06:29;6.63;;;2.72;;
47513;SDS011;33951;51.988;5.910;2023-04-30T22:09:38;4.15;;;2.63;;
47513;SDS011;33951;51.988;5.910;2023-04-30T22:15:15;3.70;;;2.63;;
47513;SDS011;33951;51.988;5.910;2023-04-30T22:18:00;3.53;;;2.53;;
47513;SDS011;33951;51.988;5.910;2023-04-30T22:20:28;9.15;;;2.88;;
47513;SDS011;33951;51.988;5.910;2023-04-30T22:23:07;6.07;;;2.55;;
47513;SDS011;33951;51.988;5.910;2023-04-30T22:34:59;5.80;;;3.10;;
47513;SDS011;33951;51.988;5.910;2023-04-30T22:37:52;9.32;;;3.90;;
47513;SDS011;33951;51.988;5.910;2023-04-30T22:40:38;6.07;;;3.42;;
47513;SDS011;33951;51.988;5.910;2023-04-30T22:43:37;6.13;;;2.95;;
47513;SDS011;33951;51.988;5.910;2023-04-30T22:49:49;6.80;;;3.53;;
47513;SDS011;33951;51.988;5.910;2023-04-30T23:02:58;5.32;;;3.38;;
47513;SDS011;33951;51.988;5.910;2023-04-30T23:20:24;8.02;;;3.03;;
47513;SDS011;33951;51.988;5.910;2023-04-30T23:26:39;4.97;;;3.25;;
47513;SDS011;33951;51.988;5.910;2023-04-30T23:44:23;5.43;;;2.90;;
47513;SDS011;33951;51.988;5.910;2023-04-30T23:47:02;5.25;;;3.50;;
47513;SDS011;33951;51.988;5.910;2023-04-30T23:50:09;5.97;;;3.17;;
47513;SDS011;33951;51.988;5.910;2023-04-30T23:52:52;5.82;;;3.63;;
47513;SDS011;33951;51.988;5.910;2023-04-30T23:55:37;5.72;;;3.75;;
47513;SDS011;33951;51.988;5.910;2023-04-30T23:58:33;6.50;;;3.70;;
